createdAt,value
2022-08-03T00:01:44.549Z,101040.82
2022-08-03T00:04:12.516Z,101041.68
2022-08-03T00:06:40.348Z,101043.41
2022-08-03T00:09:09.022Z,101042.34
2022-08-03T00:11:36.936Z,101038.45
2022-08-03T00:14:06.183Z,101037.91
2022-08-03T00:16:34.451Z,101036.65
2022-08-03T00:19:02.385Z,101037.55
2022-08-03T00:21:30.272Z,101036.29
2022-08-03T00:23:58.147Z,101034.50
2022-08-03T00:26:25.877Z,101034.14
2022-08-03T00:28:53.742Z,101034.83
2022-08-03T00:31:35.246Z,101033.94
2022-08-03T00:34:08.152Z,101032.17
2022-08-03T00:36:36.334Z,101037.30
2022-08-03T00:39:04.268Z,101036.95
2022-08-03T00:41:32.271Z,101033.92
2022-08-03T00:44:00.178Z,101034.25
2022-08-03T00:46:27.911Z,101031.59
2022-08-03T00:48:55.698Z,101031.95
2022-08-03T00:51:24.415Z,101032.13
2022-08-03T00:53:52.162Z,101034.75
2022-08-03T00:56:19.868Z,101034.23
2022-08-03T00:58:47.827Z,101033.14
2022-08-03T01:01:16.331Z,101033.84
2022-08-03T01:03:45.737Z,101031.38
2022-08-03T01:06:29.231Z,101031.34
2022-08-03T01:09:21.335Z,101028.50
2022-08-03T01:12:07.887Z,101027.61
2022-08-03T01:14:47.222Z,101027.60
2022-08-03T01:17:28.999Z,101024.95
2022-08-03T01:20:02.953Z,101025.31
2022-08-03T01:22:57.978Z,101022.13
2022-08-03T01:25:54.238Z,101022.64
2022-08-03T01:29:11.068Z,101018.95
2022-08-03T01:33:00.780Z,101017.16
2022-08-03T01:35:14.401Z,101018.02
2022-08-03T01:37:47.942Z,101016.42
2022-08-03T01:40:17.587Z,101012.34
2022-08-03T01:42:47.872Z,101009.71
2022-08-03T01:45:20.002Z,101008.48
2022-08-03T01:47:49.832Z,101006.03
2022-08-03T01:50:22.841Z,101004.42
2022-08-03T01:52:52.092Z,101002.84
2022-08-03T01:55:21.899Z,101000.02
2022-08-03T01:58:05.163Z,100999.64
2022-08-03T02:00:38.651Z,100996.65
2022-08-03T02:03:08.780Z,100996.13
2022-08-03T02:05:39.866Z,100993.66
2022-08-03T02:08:10.784Z,100995.41
2022-08-03T02:10:41.490Z,100993.09
2022-08-03T02:13:10.733Z,100993.98
2022-08-03T02:15:39.375Z,100988.35
2022-08-03T02:18:10.009Z,100986.05
2022-08-03T02:20:40.039Z,100981.64
2022-08-03T02:23:08.594Z,100980.05
2022-08-03T02:25:44.791Z,100980.24
2022-08-03T02:28:18.517Z,100980.23
2022-08-03T02:30:51.863Z,100978.31
2022-08-03T02:33:31.820Z,100978.66
2022-08-03T02:36:01.257Z,100974.61
2022-08-03T02:38:33.800Z,100977.27
2022-08-03T02:41:07.401Z,100977.10
2022-08-03T02:43:57.653Z,100976.40
2022-08-03T02:46:37.855Z,100977.62
2022-08-03T02:49:40.929Z,100977.78
2022-08-03T02:51:56.722Z,100978.86
2022-08-03T02:54:26.682Z,100982.20
2022-08-03T02:56:56.964Z,100983.08
2022-08-03T02:59:25.758Z,100980.59
2022-08-03T03:01:55.201Z,100982.70
2022-08-03T03:04:27.580Z,100982.33
2022-08-03T03:07:04.398Z,100983.90
2022-08-03T03:09:41.916Z,100988.46
2022-08-03T03:12:13.234Z,100990.75
2022-08-03T03:14:41.370Z,100991.78
2022-08-03T03:17:11.536Z,100991.26
2022-08-03T03:19:41.053Z,100991.25
2022-08-03T03:22:09.775Z,100985.80
2022-08-03T03:24:39.914Z,100989.34
2022-08-03T03:27:08.179Z,100985.98
2022-08-03T03:29:39.366Z,100990.39
2022-08-03T03:32:09.138Z,100988.10
2022-08-03T03:34:41.158Z,100988.48
2022-08-03T03:37:12.385Z,100989.39
2022-08-03T03:39:40.306Z,100987.27
2022-08-03T03:42:08.263Z,100987.45
2022-08-03T03:44:36.614Z,100991.86
2022-08-03T03:47:05.020Z,100993.27
2022-08-03T03:49:33.007Z,100995.38
2022-08-03T03:52:00.813Z,100998.23
2022-08-03T03:54:43.009Z,100996.28
2022-08-03T03:57:13.669Z,100996.10
2022-08-03T03:59:42.635Z,100992.75
2022-08-03T04:02:12.430Z,100995.21
2022-08-03T04:04:58.907Z,100997.34
2022-08-03T04:07:46.139Z,100996.99
2022-08-03T04:10:38.880Z,100995.75
2022-08-03T04:13:12.392Z,100993.31
2022-08-03T04:15:41.484Z,101000.41
2022-08-03T04:18:13.973Z,101004.13
2022-08-03T04:20:47.818Z,101006.27
2022-08-03T04:23:19.305Z,101006.44
2022-08-03T04:25:51.750Z,101010.86
2022-08-03T04:28:30.871Z,101016.02
2022-08-03T04:31:02.485Z,101014.63
2022-08-03T04:33:33.602Z,101013.77
2022-08-03T04:36:07.167Z,101015.17
2022-08-03T04:38:44.180Z,101012.88
2022-08-03T04:41:13.191Z,101016.41
2022-08-03T04:43:41.979Z,101017.32
2022-08-03T04:46:11.444Z,101022.80
2022-08-03T04:48:43.532Z,101023.52
2022-08-03T04:51:13.648Z,101026.71
2022-08-03T04:53:43.402Z,101022.33
2022-08-03T04:56:11.170Z,101023.60
2022-08-03T04:58:39.756Z,101020.63
2022-08-03T05:01:07.770Z,101021.73
2022-08-03T05:03:35.506Z,101022.55
2022-08-03T05:06:09.741Z,101026.95
2022-08-03T05:08:45.903Z,101028.05
2022-08-03T05:11:16.355Z,101022.83
2022-08-03T05:13:47.046Z,101016.63
2022-08-03T05:16:15.270Z,101017.70
2022-08-03T05:18:43.565Z,101018.56
2022-08-03T05:21:14.211Z,101019.45
2022-08-03T05:23:41.911Z,101023.70
2022-08-03T05:26:11.913Z,101018.92
2022-08-03T05:28:40.453Z,101020.17
2022-08-03T05:31:19.568Z,101023.02
2022-08-03T05:33:49.142Z,101023.17
2022-08-03T05:36:16.958Z,101022.29
2022-08-03T05:38:44.914Z,101025.12
2022-08-03T05:41:22.765Z,101029.52
2022-08-03T05:43:55.591Z,101031.57
2022-08-03T05:46:23.714Z,101033.36
2022-08-03T05:48:51.659Z,101034.71
2022-08-03T05:51:19.656Z,101039.27
2022-08-03T05:53:47.413Z,101036.29
2022-08-03T05:56:16.620Z,101036.84
2022-08-03T05:58:46.952Z,101034.41
2022-08-03T06:01:17.065Z,101036.27
2022-08-03T06:03:46.386Z,101038.15
2022-08-03T06:06:15.063Z,101036.27
2022-08-03T06:08:44.398Z,101040.02
2022-08-03T06:11:13.152Z,101042.92
2022-08-03T06:13:41.304Z,101048.02
2022-08-03T06:16:10.114Z,101049.13
2022-08-03T06:18:38.822Z,101047.93
2022-08-03T06:21:14.495Z,101044.56
2022-08-03T06:23:53.905Z,101045.44
2022-08-03T06:26:28.533Z,101045.94
2022-08-03T06:28:56.674Z,101044.50
2022-08-03T06:31:33.121Z,101043.55
2022-08-03T06:34:33.715Z,101045.15
2022-08-03T06:36:58.513Z,101046.79
2022-08-03T06:39:30.215Z,101046.70
2022-08-03T06:41:58.262Z,101046.34
2022-08-03T06:44:26.263Z,101047.88
2022-08-03T06:46:54.174Z,101047.55
2022-08-03T06:49:22.233Z,101054.55
2022-08-03T06:52:03.463Z,101052.83
2022-08-03T06:54:34.519Z,101055.02
2022-08-03T06:57:02.359Z,101053.78
2022-08-03T07:00:11.053Z,101049.30
2022-08-03T07:02:21.480Z,101048.50
2022-08-03T07:04:49.807Z,101050.29
2022-08-03T07:07:17.931Z,101047.49
2022-08-03T07:09:56.963Z,101045.86
2022-08-03T07:12:28.155Z,101052.31
2022-08-03T07:15:00.715Z,101055.55
2022-08-03T07:17:31.311Z,101050.58
2022-08-03T07:20:00.444Z,101049.23
2022-08-03T07:22:28.562Z,101047.21
2022-08-03T07:24:56.855Z,101044.38
2022-08-03T07:27:27.144Z,101041.83
2022-08-03T07:29:55.558Z,101044.00
2022-08-03T07:32:24.744Z,101042.85
2022-08-03T07:34:55.795Z,101043.48
2022-08-03T07:37:26.228Z,101045.27
2022-08-03T07:39:53.884Z,101051.25
2022-08-03T07:42:23.436Z,101048.53
2022-08-03T07:44:51.352Z,101046.08
2022-08-03T07:47:22.503Z,101044.51
2022-08-03T07:49:50.922Z,101044.28
2022-08-03T07:52:37.637Z,101045.27
2022-08-03T07:55:07.058Z,101045.05
2022-08-03T07:57:35.363Z,101047.58
2022-08-03T08:00:06.669Z,101048.41
2022-08-03T08:02:34.600Z,101047.88
2022-08-03T08:05:05.776Z,101050.09
2022-08-03T08:07:34.345Z,101051.06
2022-08-03T08:10:02.245Z,101047.15
2022-08-03T08:12:30.074Z,101049.50
2022-08-03T08:14:57.975Z,101048.63
2022-08-03T08:17:25.802Z,101050.01
2022-08-03T08:19:53.781Z,101050.20
2022-08-03T08:22:30.283Z,101050.02
2022-08-03T08:25:01.018Z,101047.23
2022-08-03T08:28:22.220Z,101050.19
2022-08-03T08:30:20.256Z,101047.73
2022-08-03T08:32:49.540Z,101046.96
2022-08-03T08:35:18.455Z,101045.76
2022-08-03T08:37:50.900Z,101040.16
2022-08-03T08:40:22.912Z,101042.84
2022-08-03T08:42:58.564Z,101039.61
2022-08-03T08:45:27.700Z,101039.55
2022-08-03T08:48:01.826Z,101042.33
2022-08-03T08:50:32.040Z,101040.33
2022-08-03T08:53:03.878Z,101043.98
2022-08-03T08:55:58.406Z,101042.06
2022-08-03T08:58:22.606Z,101041.56
2022-08-03T09:00:51.242Z,101038.27
2022-08-03T09:03:29.164Z,101038.77
2022-08-03T09:06:03.320Z,101040.10
2022-08-03T09:08:32.470Z,101037.33
2022-08-03T09:11:00.786Z,101039.95
2022-08-03T09:13:30.572Z,101035.85
2022-08-03T09:16:12.509Z,101039.05
2022-08-03T09:18:45.895Z,101037.63
2022-08-03T09:21:33.460Z,101038.49
2022-08-03T09:24:07.013Z,101034.38
2022-08-03T09:26:38.422Z,101029.92
2022-08-03T09:29:15.027Z,101031.58
2022-08-03T09:31:46.129Z,101030.63
2022-08-03T09:34:16.548Z,101024.60
2022-08-03T09:36:46.636Z,101031.29
2022-08-03T09:39:19.664Z,101026.24
2022-08-03T09:42:14.939Z,101022.39
2022-08-03T09:44:46.493Z,101019.52
2022-08-03T09:47:28.416Z,101020.09
2022-08-03T09:50:02.401Z,101019.13
2022-08-03T09:52:38.614Z,101018.52
2022-08-03T09:56:33.009Z,101016.70
2022-08-03T09:58:10.545Z,101017.20
2022-08-03T10:00:59.091Z,101010.85
2022-08-03T10:03:29.933Z,101010.56
2022-08-03T10:05:59.939Z,101009.55
2022-08-03T10:08:28.116Z,101010.64
2022-08-03T10:10:57.989Z,101009.45
2022-08-03T10:13:25.904Z,101009.68
2022-08-03T10:16:23.664Z,101012.73
2022-08-03T10:18:41.286Z,101009.20
2022-08-03T10:21:16.169Z,101004.36
2022-08-03T10:23:43.932Z,101003.02
2022-08-03T10:26:16.502Z,101004.79
2022-08-03T10:28:50.389Z,100997.13
2022-08-03T10:31:20.607Z,100998.42
2022-08-03T10:33:53.277Z,100997.59
2022-08-03T10:36:24.565Z,100990.41
2022-08-03T10:38:53.848Z,100995.00
2022-08-03T10:41:23.357Z,100997.71
2022-08-03T10:43:58.756Z,100993.08
2022-08-03T10:46:27.733Z,100994.59
2022-08-03T10:48:56.912Z,100995.48
2022-08-03T10:51:29.166Z,100992.97
2022-08-03T10:53:56.901Z,100992.27
2022-08-03T10:56:51.804Z,100988.48
2022-08-03T10:59:40.249Z,100989.18
2022-08-03T11:02:10.774Z,100986.08
2022-08-03T11:04:38.497Z,100983.73
2022-08-03T11:07:18.577Z,100984.04
2022-08-03T11:09:48.698Z,100981.52
2022-08-03T11:12:28.438Z,100979.84
2022-08-03T11:15:06.030Z,100977.50
2022-08-03T11:17:46.270Z,100978.41
2022-08-03T11:20:58.681Z,100974.54
2022-08-03T11:24:02.662Z,100973.11
2022-08-03T11:26:34.778Z,100972.55
2022-08-03T11:29:29.081Z,100966.29
2022-08-03T11:31:57.566Z,100968.32
2022-08-03T11:34:26.419Z,100966.64
2022-08-03T11:37:22.976Z,100960.00
2022-08-03T11:39:54.803Z,100961.96
2022-08-03T11:42:22.561Z,100959.79
2022-08-03T11:44:51.693Z,100961.83
2022-08-03T11:47:21.806Z,100960.30
2022-08-03T11:49:51.408Z,100960.69
2022-08-03T11:52:27.216Z,100964.09
2022-08-03T11:54:57.275Z,100958.37
2022-08-03T11:59:16.434Z,100958.73
2022-08-03T12:00:23.620Z,100959.08
2022-08-03T12:02:58.897Z,100954.61
2022-08-03T12:05:52.026Z,100947.05
2022-08-03T12:08:32.623Z,100951.16
2022-08-03T12:11:05.756Z,100949.98
2022-08-03T12:14:45.267Z,100946.35
2022-08-03T12:16:31.358Z,100948.87
2022-08-03T12:19:01.414Z,100948.08
2022-08-03T12:21:30.000Z,100946.43
2022-08-03T12:24:04.088Z,100944.80
2022-08-03T12:26:59.506Z,100939.45
2022-08-03T12:29:27.828Z,100937.55
2022-08-03T12:31:56.313Z,100940.42
2022-08-03T12:34:24.307Z,100934.66
2022-08-03T12:36:55.920Z,100933.89
2022-08-03T12:39:25.637Z,100930.86
2022-08-03T12:41:55.306Z,100925.98
2022-08-03T12:44:34.798Z,100927.08
2022-08-03T12:47:06.888Z,100920.55
2022-08-03T12:49:47.986Z,100922.52
2022-08-03T12:52:17.900Z,100920.69
2022-08-03T12:54:59.085Z,100923.29
2022-08-03T12:57:41.245Z,100920.90
2022-08-03T13:00:28.681Z,100920.42
2022-08-03T13:05:55.736Z,100916.66
2022-08-03T13:08:25.718Z,100917.52
2022-08-03T13:10:53.739Z,100919.02
2022-08-03T13:13:40.576Z,100916.88
2022-08-03T13:16:08.251Z,100914.12
2022-08-03T13:18:36.087Z,100914.13
2022-08-03T13:21:04.071Z,100912.32
2022-08-03T13:23:32.108Z,100914.36
2022-08-03T13:26:00.103Z,100915.19
2022-08-03T13:28:27.811Z,100909.91
2022-08-03T13:30:55.674Z,100909.04
2022-08-03T13:33:23.517Z,100907.70
2022-08-03T13:35:51.436Z,100906.89
2022-08-03T13:38:21.615Z,100912.08
2022-08-03T13:40:55.036Z,100905.23
2022-08-03T13:43:24.133Z,100907.98
2022-08-03T13:45:56.548Z,100901.34
2022-08-03T13:48:36.966Z,100897.84
2022-08-03T13:51:21.689Z,100898.01
2022-08-03T13:53:51.492Z,100889.25
2022-08-03T13:56:19.445Z,100891.34
2022-08-03T13:58:47.193Z,100893.66
2022-08-03T14:01:15.017Z,100895.92
2022-08-03T14:03:42.910Z,100894.38
2022-08-03T14:06:11.469Z,100887.38
2022-08-03T14:08:39.265Z,100882.70
2022-08-03T14:11:07.409Z,100881.99
2022-08-03T14:13:35.412Z,100879.18
2022-08-03T14:16:03.213Z,100880.19
2022-08-03T14:18:33.956Z,100882.27
2022-08-03T14:21:07.359Z,100883.20
2022-08-03T14:23:37.914Z,100881.44
2022-08-03T14:26:08.217Z,100877.68
2022-08-03T14:28:36.579Z,100878.75
2022-08-03T14:31:08.382Z,100876.25
2022-08-03T14:33:52.714Z,100870.58
2022-08-03T14:36:20.559Z,100870.48
2022-08-03T14:38:48.530Z,100868.71
2022-08-03T14:41:19.820Z,100861.65
2022-08-03T14:44:01.612Z,100863.91
2022-08-03T14:46:31.250Z,100862.04
2022-08-03T14:50:33.697Z,100861.03
2022-08-03T14:51:53.452Z,100860.54
2022-08-03T14:54:22.953Z,100860.70
2022-08-03T14:56:50.978Z,100858.37
2022-08-03T14:59:18.692Z,100857.33
2022-08-03T15:02:04.799Z,100855.41
2022-08-03T15:04:34.817Z,100855.93
2022-08-03T15:07:02.545Z,100851.40
2022-08-03T15:09:30.426Z,100849.91
2022-08-03T15:11:58.358Z,100850.23
2022-08-03T15:14:32.309Z,100851.96
2022-08-03T15:17:01.647Z,100849.38
2022-08-03T15:20:01.999Z,100849.35
2022-08-03T15:22:20.513Z,100843.30
2022-08-03T15:24:53.950Z,100845.52
2022-08-03T15:27:22.723Z,100846.00
2022-08-03T15:30:07.396Z,100844.52
2022-08-03T15:32:38.087Z,100843.60
2022-08-03T15:35:06.377Z,100843.95
2022-08-03T15:37:34.135Z,100845.41
2022-08-03T15:40:02.396Z,100840.64
2022-08-03T15:42:31.352Z,100841.49
2022-08-03T15:44:59.601Z,100839.91
2022-08-03T15:47:27.683Z,100843.02
2022-08-03T15:49:55.594Z,100840.79
2022-08-03T15:52:23.340Z,100835.91
2022-08-03T15:54:51.371Z,100835.45
2022-08-03T15:57:20.121Z,100833.70
2022-08-03T15:59:48.166Z,100833.13
2022-08-03T16:02:16.255Z,100836.21
2022-08-03T16:04:44.017Z,100830.12
2022-08-03T16:07:12.886Z,100826.55
2022-08-03T16:09:45.652Z,100822.89
2022-08-03T16:12:16.315Z,100825.65
2022-08-03T16:14:53.772Z,100824.12
2022-08-03T16:17:23.700Z,100822.23
2022-08-03T16:19:54.097Z,100821.21
2022-08-03T16:22:24.755Z,100817.95
2022-08-03T16:24:54.359Z,100817.52
2022-08-03T16:27:37.088Z,100818.48
2022-08-03T16:30:12.939Z,100816.16
2022-08-03T16:32:40.669Z,100811.77
2022-08-03T16:35:08.906Z,100815.50
2022-08-03T16:37:38.543Z,100815.83
2022-08-03T16:40:17.403Z,100813.69
2022-08-03T16:42:47.744Z,100813.54
2022-08-03T16:45:15.536Z,100811.63
2022-08-03T16:47:43.274Z,100811.04
2022-08-03T16:50:17.200Z,100811.24
2022-08-03T16:52:48.510Z,100810.06
2022-08-03T16:55:42.977Z,100813.31
2022-08-03T16:58:05.808Z,100813.38
2022-08-03T17:00:41.591Z,100815.19
2022-08-03T17:03:25.564Z,100813.04
2022-08-03T17:05:54.133Z,100815.10
2022-08-03T17:08:27.636Z,100814.19
2022-08-03T17:10:56.330Z,100817.77
2022-08-03T17:13:39.294Z,100817.83
2022-08-03T17:16:10.584Z,100821.27
2022-08-03T17:18:47.561Z,100824.00
2022-08-03T17:21:17.549Z,100821.75
2022-08-03T17:23:57.614Z,100822.44
2022-08-03T17:26:30.595Z,100819.75
2022-08-03T17:29:11.438Z,100822.69
2022-08-03T17:31:48.459Z,100824.41
2022-08-03T17:34:19.339Z,100824.17
2022-08-03T17:37:05.577Z,100824.74
2022-08-03T17:42:31.186Z,100828.09
2022-08-03T17:45:03.554Z,100825.42
2022-08-03T17:47:41.418Z,100826.51
2022-08-03T17:50:23.912Z,100827.80
2022-08-03T17:53:14.411Z,100825.45
2022-08-03T17:56:44.651Z,100829.63
2022-08-03T17:59:16.407Z,100832.08
2022-08-03T18:02:41.209Z,100832.17
2022-08-03T18:05:18.300Z,100829.48
2022-08-03T18:08:01.579Z,100829.18
2022-08-03T18:10:36.316Z,100831.05
2022-08-03T18:13:30.219Z,100831.86
2022-08-03T18:16:06.971Z,100830.02
2022-08-03T18:18:43.233Z,100830.52
2022-08-03T18:21:17.044Z,100831.01
2022-08-03T18:23:50.289Z,100831.79
2022-08-03T18:26:20.610Z,100832.63
2022-08-03T18:28:53.521Z,100834.90
2022-08-03T18:31:59.847Z,100836.98
2022-08-03T18:34:32.558Z,100840.73
2022-08-03T18:37:07.160Z,100841.30
2022-08-03T18:39:49.884Z,100841.95
2022-08-03T18:42:19.663Z,100845.23
2022-08-03T18:44:54.459Z,100846.40
2022-08-03T18:47:27.481Z,100849.36
2022-08-03T18:50:36.729Z,100852.16
2022-08-03T18:54:02.128Z,100854.42
2022-08-03T18:56:53.714Z,100853.91
2022-08-03T18:59:29.991Z,100859.11
2022-08-03T19:02:06.867Z,100860.27
2022-08-03T19:04:52.850Z,100865.30
2022-08-03T19:07:27.109Z,100864.46
2022-08-03T19:09:59.831Z,100863.50
2022-08-03T19:12:39.756Z,100865.48
2022-08-03T19:15:13.783Z,100870.91
2022-08-03T19:17:53.213Z,100873.92
2022-08-03T19:20:24.960Z,100871.65
2022-08-03T19:22:55.386Z,100872.59
2022-08-03T19:25:34.973Z,100870.37
2022-08-03T19:28:06.258Z,100869.97
2022-08-03T19:30:38.530Z,100866.73
2022-08-03T19:33:09.983Z,100867.46
2022-08-03T19:35:52.081Z,100864.78
2022-08-03T19:38:28.501Z,100862.89
2022-08-03T19:41:01.586Z,100862.54
2022-08-03T19:43:49.592Z,100860.75
2022-08-03T19:46:30.209Z,100865.70
2022-08-03T19:49:15.321Z,100866.54
2022-08-03T19:51:58.893Z,100865.39
2022-08-03T19:54:53.785Z,100863.91
2022-08-03T19:57:28.585Z,100864.48
2022-08-03T19:59:57.231Z,100866.38
2022-08-03T20:02:26.359Z,100868.31
2022-08-03T20:04:57.359Z,100872.64
2022-08-03T20:07:27.054Z,100869.17
2022-08-03T20:09:56.432Z,100870.10
2022-08-03T20:12:27.958Z,100871.24
2022-08-03T20:14:58.061Z,100872.64
2022-08-03T20:17:54.747Z,100874.92
2022-08-03T20:20:19.975Z,100876.73
2022-08-03T20:22:52.910Z,100875.19
2022-08-03T20:25:37.615Z,100875.31
2022-08-03T20:28:14.210Z,100872.05
2022-08-03T20:30:47.194Z,100869.78
2022-08-03T20:33:18.877Z,100870.74
2022-08-03T20:35:49.629Z,100872.76
2022-08-03T20:38:19.055Z,100871.31
2022-08-03T20:40:48.391Z,100873.42
2022-08-03T20:43:17.085Z,100873.92
2022-08-03T20:45:59.014Z,100874.86
2022-08-03T20:48:37.441Z,100874.64
2022-08-03T20:51:19.657Z,100878.11
2022-08-03T20:53:57.208Z,100882.30
2022-08-03T20:56:43.804Z,100888.98
2022-08-03T20:59:19.257Z,100886.64
2022-08-03T21:01:47.425Z,100889.92
2022-08-03T21:04:15.825Z,100891.09
2022-08-03T21:07:00.665Z,100894.00
2022-08-03T21:09:41.580Z,100895.67
2022-08-03T21:13:08.185Z,100890.39
2022-08-03T21:15:05.470Z,100894.63
2022-08-03T21:17:40.896Z,100894.59
2022-08-03T21:20:11.296Z,100891.52
2022-08-03T21:22:43.509Z,100893.65
2022-08-03T21:25:14.831Z,100895.30
2022-08-03T21:27:43.339Z,100891.38
2022-08-03T21:30:12.126Z,100891.65
2022-08-03T21:32:43.185Z,100892.01
2022-08-03T21:35:12.749Z,100893.45
2022-08-03T21:37:41.845Z,100895.23
2022-08-03T21:40:12.207Z,100895.95
2022-08-03T21:42:44.002Z,100895.36
2022-08-03T21:45:17.308Z,100898.42
2022-08-03T21:47:47.396Z,100899.57
2022-08-03T21:50:15.905Z,100900.63
2022-08-03T21:52:47.895Z,100898.52
2022-08-03T21:55:20.423Z,100898.95
2022-08-03T21:57:53.151Z,100901.32
2022-08-03T22:00:23.452Z,100897.80
2022-08-03T22:02:55.351Z,100897.02
2022-08-03T22:05:42.733Z,100898.14
2022-08-03T22:08:14.920Z,100897.61
2022-08-03T22:10:46.699Z,100901.48
2022-08-03T22:13:21.932Z,100905.73
2022-08-03T22:16:05.770Z,100905.71
2022-08-03T22:18:40.308Z,100907.64
2022-08-03T22:21:11.687Z,100904.98
2022-08-03T22:23:48.528Z,100908.24
2022-08-03T22:26:34.679Z,100909.90
2022-08-03T22:29:08.058Z,100910.79
2022-08-03T22:31:58.472Z,100908.48
2022-08-03T22:34:27.168Z,100910.17
2022-08-03T22:37:01.304Z,100906.77
2022-08-03T22:39:30.091Z,100908.98
2022-08-03T22:42:01.556Z,100909.80
2022-08-03T22:44:29.768Z,100913.16
2022-08-03T22:46:58.522Z,100908.57
2022-08-03T22:49:28.353Z,100914.38
2022-08-03T22:51:56.299Z,100914.17
2022-08-03T22:54:24.390Z,100914.73
2022-08-03T22:56:52.395Z,100915.61
2022-08-03T22:59:38.919Z,100912.23
2022-08-03T23:02:21.324Z,100916.51
2022-08-03T23:04:57.399Z,100917.39
2022-08-03T23:07:32.160Z,100922.55
2022-08-03T23:10:03.825Z,100919.87
2022-08-03T23:12:35.077Z,100924.81
2022-08-03T23:15:08.511Z,100928.27
2022-08-03T23:17:58.103Z,100928.64
2022-08-03T23:20:27.066Z,100931.33
2022-08-03T23:22:57.962Z,100932.75
2022-08-03T23:25:26.894Z,100932.70
2022-08-03T23:28:05.027Z,100926.48
2022-08-03T23:30:37.382Z,100932.68
2022-08-03T23:33:06.697Z,100931.66
2022-08-03T23:36:20.149Z,100933.42
2022-08-03T23:38:43.665Z,100930.21
2022-08-03T23:41:13.707Z,100930.58
2022-08-03T23:43:52.263Z,100929.67
2022-08-03T23:46:22.732Z,100930.41
2022-08-03T23:48:51.189Z,100929.35
2022-08-03T23:51:44.721Z,100932.02
2022-08-03T23:54:44.324Z,100936.34
2022-08-03T23:57:40.022Z,100937.48
